Observations for Trim Patrick St
| Time | AQI | Temp °C | Hum % | Pres Pa | CO μg/m³ | H₂S μg/m³ | NO μg/m³ | NO₂ μg/m³ | O₃ μg/m³ | SO₂ μg/m³ | PM1 μg/m³ | PM2.5 μg/m³ | PM10 μg/m³ |
|---|---|---|---|---|---|---|---|---|---|---|---|---|---|
| Thursday 30 July 2026 | |||||||||||||
| 16:29 | 3 | 27.3 | 32 | 69,010 | 0 | 2.03 | 1.34 | 16.09 | 105.71 | 10.82 | 2 | 8.37 | 9.21 |
| 16:28 | 3 | 27.4 | 31 | 69,016 | 0 | 0 | 1.52 | 12.75 | 93.18 | 11.27 | 2.86 | 8.42 | 9.26 |
| 16:27 | 3 | 27.5 | 31 | 69,025 | 0 | 0 | 1.59 | 15.32 | 87.15 | 10.99 | 2 | 7.62 | 8.38 |
| 16:26 | 3 | 27.5 | 30 | 69,004 | 0 | 0 | 1.76 | 12.68 | 69.01 | 10.32 | 2 | 7.66 | 8.43 |
| 16:25 | 3 | 27.6 | 31 | 69,006 | 0 | 14.42 | 1.9 | 21.8 | 97.03 | 12.09 | 2 | 8.41 | 9.25 |
| 16:24 | 3 | 27.6 | 31 | 69,008 | 0 | 4.36 | 1.49 | 20.95 | 98.32 | 11.05 | 2 | 7.63 | 8.39 |
| 16:22 | 3 | 27.6 | 30 | 69,016 | 0 | 1.23 | 1.52 | 15.31 | 80.6 | 10.14 | 2 | 7.66 | 8.42 |
| 16:21 | 3 | 27.6 | 30 | 68,993 | 0 | 2.28 | 1.55 | 14.53 | 108.78 | 11.06 | 2.86 | 9.29 | 10.21 |
| 16:20 | 3 | 27.5 | 30 | 68,991 | 0 | 0 | 1.48 | 14.86 | 87.27 | 9.6 | 2.86 | 8.48 | 9.33 |
| 16:18 | 3 | 27.2 | 32 | 68,975 | 0 | 10.39 | 1.68 | 14.11 | 109.23 | 11.49 | 2 | 7.57 | 8.32 |
| 16:17 | 3 | 27.1 | 31 | 68,965 | 0 | 12.64 | 1.88 | 18.25 | 98.64 | 11.43 | 2 | 7.59 | 8.35 |
| 16:16 | 3 | 27.1 | 31 | 68,953 | 0 | 8.55 | 1.76 | 20.99 | 104.96 | 11.16 | 2.86 | 8.42 | 9.26 |
| 16:15 | 3 | 27 | 31 | 68,943 | 0 | 0 | 1.77 | 12.41 | 80.03 | 9.87 | 2.86 | 8.42 | 9.26 |
| 16:14 | 3 | 26.9 | 32 | 68,961 | 0 | 6.46 | 1.55 | 14.96 | 98.44 | 10.64 | 2 | 8.34 | 9.17 |
| 16:13 | 3 | 26.9 | 31 | 68,957 | 0 | 6.43 | 1.49 | 13.53 | 114.74 | 11.62 | 2 | 7.59 | 8.35 |
| 16:12 | 3 | 26.8 | 30 | 68,977 | 0 | 3.48 | 1.64 | 13.12 | 113.66 | 11.27 | 2.86 | 8.48 | 9.33 |
| 16:11 | 3 | 26.9 | 30 | 68,973 | 0 | 3.32 | 1.52 | 12.11 | 89.21 | 10.56 | 2 | 7.67 | 8.44 |
| 16:10 | 3 | 26.8 | 30 | 68,967 | 0 | 0 | 1.79 | 15.38 | 96.06 | 9.9 | 2.86 | 8.46 | 9.31 |
| 16:09 | 3 | 26.7 | 29 | 68,959 | 0 | 0 | 2.02 | 8.68 | 69.26 | 10.46 | 2 | 7.71 | 8.48 |
| 16:07 | 3 | 26.5 | 33 | 68,969 | 0 | 4.28 | 1.91 | 11.94 | 96.92 | 10.59 | 2 | 8.27 | 9.1 |